sensor_id;sensor_type;location;lat;lon;timestamp;temperature;humidity
19039;DHT22;9652;49.014;12.052;2022-08-19T00:00:37;23.70;75.60
19039;DHT22;9652;49.014;12.052;2022-08-19T00:03:05;23.70;75.80
19039;DHT22;9652;49.014;12.052;2022-08-19T00:05:34;23.70;75.60
19039;DHT22;9652;49.014;12.052;2022-08-19T00:08:01;23.70;75.50
19039;DHT22;9652;49.014;12.052;2022-08-19T00:10:28;23.70;75.60
19039;DHT22;9652;49.014;12.052;2022-08-19T00:12:57;23.70;75.90
19039;DHT22;9652;49.014;12.052;2022-08-19T00:15:24;23.70;77.10
19039;DHT22;9652;49.014;12.052;2022-08-19T00:17:51;23.70;76.30
19039;DHT22;9652;49.014;12.052;2022-08-19T00:20:20;23.70;77.10
19039;DHT22;9652;49.014;12.052;2022-08-19T00:22:48;23.70;76.30
19039;DHT22;9652;49.014;12.052;2022-08-19T00:25:16;23.70;75.90
19039;DHT22;9652;49.014;12.052;2022-08-19T00:27:43;23.70;75.70
19039;DHT22;9652;49.014;12.052;2022-08-19T00:30:13;23.70;75.50
19039;DHT22;9652;49.014;12.052;2022-08-19T00:32:40;23.70;75.20
19039;DHT22;9652;49.014;12.052;2022-08-19T00:35:08;23.70;75.20
19039;DHT22;9652;49.014;12.052;2022-08-19T00:37:36;23.70;75.30
19039;DHT22;9652;49.014;12.052;2022-08-19T00:40:05;23.70;74.80
19039;DHT22;9652;49.014;12.052;2022-08-19T00:42:34;23.70;74.60
19039;DHT22;9652;49.014;12.052;2022-08-19T00:45:02;23.70;74.60
19039;DHT22;9652;49.014;12.052;2022-08-19T00:47:38;23.70;74.50
19039;DHT22;9652;49.014;12.052;2022-08-19T00:50:06;23.70;74.10
19039;DHT22;9652;49.014;12.052;2022-08-19T00:52:40;23.60;74.10
19039;DHT22;9652;49.014;12.052;2022-08-19T00:55:13;23.60;74.20
19039;DHT22;9652;49.014;12.052;2022-08-19T00:57:47;23.60;74.00
19039;DHT22;9652;49.014;12.052;2022-08-19T01:00:18;23.60;73.80
19039;DHT22;9652;49.014;12.052;2022-08-19T01:02:47;23.60;73.60
19039;DHT22;9652;49.014;12.052;2022-08-19T01:05:17;23.60;73.80
19039;DHT22;9652;49.014;12.052;2022-08-19T01:07:48;23.60;73.70
19039;DHT22;9652;49.014;12.052;2022-08-19T01:10:19;23.60;73.40
19039;DHT22;9652;49.014;12.052;2022-08-19T01:12:48;23.60;73.40
19039;DHT22;9652;49.014;12.052;2022-08-19T01:15:20;23.60;73.40
19039;DHT22;9652;49.014;12.052;2022-08-19T01:17:53;23.60;73.40
19039;DHT22;9652;49.014;12.052;2022-08-19T01:20:23;23.60;73.60
19039;DHT22;9652;49.014;12.052;2022-08-19T01:22:53;23.60;73.30
19039;DHT22;9652;49.014;12.052;2022-08-19T01:25:26;23.60;72.90
19039;DHT22;9652;49.014;12.052;2022-08-19T01:27:56;23.60;72.60
19039;DHT22;9652;49.014;12.052;2022-08-19T01:30:27;23.60;72.50
19039;DHT22;9652;49.014;12.052;2022-08-19T01:32:57;23.60;72.40
19039;DHT22;9652;49.014;12.052;2022-08-19T01:35:27;23.60;72.50
19039;DHT22;9652;49.014;12.052;2022-08-19T01:37:59;23.70;72.80
19039;DHT22;9652;49.014;12.052;2022-08-19T01:40:30;23.70;73.10
19039;DHT22;9652;49.014;12.052;2022-08-19T01:42:59;23.70;73.10
19039;DHT22;9652;49.014;12.052;2022-08-19T01:45:28;23.70;73.00
19039;DHT22;9652;49.014;12.052;2022-08-19T01:47:57;23.70;72.60
19039;DHT22;9652;49.014;12.052;2022-08-19T01:50:25;23.70;72.40
19039;DHT22;9652;49.014;12.052;2022-08-19T01:52:53;23.80;72.30
19039;DHT22;9652;49.014;12.052;2022-08-19T01:55:21;23.80;72.40
19039;DHT22;9652;49.014;12.052;2022-08-19T01:57:53;23.80;72.10
19039;DHT22;9652;49.014;12.052;2022-08-19T02:00:26;23.80;71.70
19039;DHT22;9652;49.014;12.052;2022-08-19T02:02:56;23.80;71.60
19039;DHT22;9652;49.014;12.052;2022-08-19T02:05:23;23.90;71.40
19039;DHT22;9652;49.014;12.052;2022-08-19T02:07:51;23.80;71.40
19039;DHT22;9652;49.014;12.052;2022-08-19T02:10:21;23.90;71.40
19039;DHT22;9652;49.014;12.052;2022-08-19T02:12:49;23.90;71.10
19039;DHT22;9652;49.014;12.052;2022-08-19T02:15:16;23.90;71.80
19039;DHT22;9652;49.014;12.052;2022-08-19T02:17:44;23.90;71.20
19039;DHT22;9652;49.014;12.052;2022-08-19T02:20:12;23.90;71.10
19039;DHT22;9652;49.014;12.052;2022-08-19T02:22:40;24.00;71.30
19039;DHT22;9652;49.014;12.052;2022-08-19T02:25:09;23.90;71.40
19039;DHT22;9652;49.014;12.052;2022-08-19T02:27:38;24.00;71.60
19039;DHT22;9652;49.014;12.052;2022-08-19T02:30:08;24.00;71.50
19039;DHT22;9652;49.014;12.052;2022-08-19T02:32:38;24.00;71.20
19039;DHT22;9652;49.014;12.052;2022-08-19T02:35:06;24.10;71.10
19039;DHT22;9652;49.014;12.052;2022-08-19T02:37:34;24.10;70.90
19039;DHT22;9652;49.014;12.052;2022-08-19T02:40:19;24.10;70.80
19039;DHT22;9652;49.014;12.052;2022-08-19T02:42:48;24.10;70.80
19039;DHT22;9652;49.014;12.052;2022-08-19T02:45:15;24.20;70.80
19039;DHT22;9652;49.014;12.052;2022-08-19T02:47:42;24.20;70.80
19039;DHT22;9652;49.014;12.052;2022-08-19T02:50:09;24.20;70.60
19039;DHT22;9652;49.014;12.052;2022-08-19T02:52:36;24.20;70.60
19039;DHT22;9652;49.014;12.052;2022-08-19T02:55:05;24.20;70.40
19039;DHT22;9652;49.014;12.052;2022-08-19T02:57:33;24.20;70.30
19039;DHT22;9652;49.014;12.052;2022-08-19T03:00:04;24.20;70.10
19039;DHT22;9652;49.014;12.052;2022-08-19T03:02:32;24.20;70.00
19039;DHT22;9652;49.014;12.052;2022-08-19T03:04:59;24.20;70.00
19039;DHT22;9652;49.014;12.052;2022-08-19T03:07:27;24.20;70.00
19039;DHT22;9652;49.014;12.052;2022-08-19T03:09:54;24.20;70.00
19039;DHT22;9652;49.014;12.052;2022-08-19T03:12:21;24.20;69.90
19039;DHT22;9652;49.014;12.052;2022-08-19T03:14:48;24.20;69.80
19039;DHT22;9652;49.014;12.052;2022-08-19T03:17:16;24.20;69.80
19039;DHT22;9652;49.014;12.052;2022-08-19T03:19:43;24.20;70.70
19039;DHT22;9652;49.014;12.052;2022-08-19T03:22:11;24.20;69.90
19039;DHT22;9652;49.014;12.052;2022-08-19T03:24:39;24.30;69.90
19039;DHT22;9652;49.014;12.052;2022-08-19T03:27:06;24.30;69.80
19039;DHT22;9652;49.014;12.052;2022-08-19T03:29:36;24.30;69.90
19039;DHT22;9652;49.014;12.052;2022-08-19T03:32:05;24.30;70.00
19039;DHT22;9652;49.014;12.052;2022-08-19T03:34:35;24.30;70.00
19039;DHT22;9652;49.014;12.052;2022-08-19T03:37:07;24.30;70.10
19039;DHT22;9652;49.014;12.052;2022-08-19T03:39:37;24.30;70.00
19039;DHT22;9652;49.014;12.052;2022-08-19T03:42:05;24.30;70.00
19039;DHT22;9652;49.014;12.052;2022-08-19T03:44:32;24.30;69.90
19039;DHT22;9652;49.014;12.052;2022-08-19T03:47:03;24.30;69.70
19039;DHT22;9652;49.014;12.052;2022-08-19T03:49:33;24.40;69.60
19039;DHT22;9652;49.014;12.052;2022-08-19T03:52:02;24.40;69.40
19039;DHT22;9652;49.014;12.052;2022-08-19T03:54:33;24.40;69.30
19039;DHT22;9652;49.014;12.052;2022-08-19T03:57:00;24.40;69.40
19039;DHT22;9652;49.014;12.052;2022-08-19T03:59:31;24.40;69.40
19039;DHT22;9652;49.014;12.052;2022-08-19T04:02:05;24.40;69.40
19039;DHT22;9652;49.014;12.052;2022-08-19T04:04:36;24.40;69.60
19039;DHT22;9652;49.014;12.052;2022-08-19T04:07:04;24.40;69.60
19039;DHT22;9652;49.014;12.052;2022-08-19T04:09:33;24.40;69.60
19039;DHT22;9652;49.014;12.052;2022-08-19T04:12:02;24.40;69.50
19039;DHT22;9652;49.014;12.052;2022-08-19T04:14:31;24.40;69.30
19039;DHT22;9652;49.014;12.052;2022-08-19T04:17:01;24.40;69.20
19039;DHT22;9652;49.014;12.052;2022-08-19T04:19:30;24.40;69.20
19039;DHT22;9652;49.014;12.052;2022-08-19T04:21:59;24.40;69.20
19039;DHT22;9652;49.014;12.052;2022-08-19T04:24:27;24.40;69.00
19039;DHT22;9652;49.014;12.052;2022-08-19T04:26:54;24.40;68.90
19039;DHT22;9652;49.014;12.052;2022-08-19T04:29:24;24.40;68.90
19039;DHT22;9652;49.014;12.052;2022-08-19T04:31:53;24.40;69.00
19039;DHT22;9652;49.014;12.052;2022-08-19T04:34:23;24.40;69.20
19039;DHT22;9652;49.014;12.052;2022-08-19T04:36:54;24.30;69.30
19039;DHT22;9652;49.014;12.052;2022-08-19T04:39:26;24.40;69.30
19039;DHT22;9652;49.014;12.052;2022-08-19T04:42:09;24.40;70.10
19039;DHT22;9652;49.014;12.052;2022-08-19T04:44:54;24.40;69.30
19039;DHT22;9652;49.014;12.052;2022-08-19T04:47:21;24.40;69.10
19039;DHT22;9652;49.014;12.052;2022-08-19T04:49:48;24.40;69.10
19039;DHT22;9652;49.014;12.052;2022-08-19T04:52:15;24.40;69.30
19039;DHT22;9652;49.014;12.052;2022-08-19T04:54:43;24.40;69.30
19039;DHT22;9652;49.014;12.052;2022-08-19T04:57:10;24.40;69.40
19039;DHT22;9652;49.014;12.052;2022-08-19T04:59:38;24.40;69.50
19039;DHT22;9652;49.014;12.052;2022-08-19T05:02:07;24.40;69.60
19039;DHT22;9652;49.014;12.052;2022-08-19T05:04:35;24.40;69.80
19039;DHT22;9652;49.014;12.052;2022-08-19T05:07:05;24.40;69.60
19039;DHT22;9652;49.014;12.052;2022-08-19T05:09:32;24.40;69.40
19039;DHT22;9652;49.014;12.052;2022-08-19T05:12:02;24.50;69.40
19039;DHT22;9652;49.014;12.052;2022-08-19T05:14:31;24.50;69.40
19039;DHT22;9652;49.014;12.052;2022-08-19T05:16:58;24.50;69.30
19039;DHT22;9652;49.014;12.052;2022-08-19T05:19:25;24.50;69.20
19039;DHT22;9652;49.014;12.052;2022-08-19T05:22:24;24.50;69.10
19039;DHT22;9652;49.014;12.052;2022-08-19T05:25:04;24.50;69.20
19039;DHT22;9652;49.014;12.052;2022-08-19T05:27:33;24.50;69.30
19039;DHT22;9652;49.014;12.052;2022-08-19T05:30:00;24.50;69.20
19039;DHT22;9652;49.014;12.052;2022-08-19T05:32:27;24.50;69.10
19039;DHT22;9652;49.014;12.052;2022-08-19T05:34:55;24.50;68.90
19039;DHT22;9652;49.014;12.052;2022-08-19T05:37:22;24.50;68.80
19039;DHT22;9652;49.014;12.052;2022-08-19T05:39:52;24.50;68.70
19039;DHT22;9652;49.014;12.052;2022-08-19T05:42:21;24.50;68.60
19039;DHT22;9652;49.014;12.052;2022-08-19T05:44:50;24.60;68.80
19039;DHT22;9652;49.014;12.052;2022-08-19T05:47:18;24.60;68.80
19039;DHT22;9652;49.014;12.052;2022-08-19T05:49:46;24.60;68.80
19039;DHT22;9652;49.014;12.052;2022-08-19T05:52:15;24.60;68.60
19039;DHT22;9652;49.014;12.052;2022-08-19T05:54:42;24.60;68.60
19039;DHT22;9652;49.014;12.052;2022-08-19T05:57:13;24.60;68.60
19039;DHT22;9652;49.014;12.052;2022-08-19T05:59:40;24.70;68.60
19039;DHT22;9652;49.014;12.052;2022-08-19T06:02:09;24.70;68.60
19039;DHT22;9652;49.014;12.052;2022-08-19T06:04:36;24.70;68.50
19039;DHT22;9652;49.014;12.052;2022-08-19T06:07:03;24.80;68.30
19039;DHT22;9652;49.014;12.052;2022-08-19T06:09:30;24.70;68.00
19039;DHT22;9652;49.014;12.052;2022-08-19T06:11:58;24.80;67.90
19039;DHT22;9652;49.014;12.052;2022-08-19T06:14:29;24.80;67.70
19039;DHT22;9652;49.014;12.052;2022-08-19T06:17:00;24.80;67.50
19039;DHT22;9652;49.014;12.052;2022-08-19T06:19:30;24.90;67.30
19039;DHT22;9652;49.014;12.052;2022-08-19T06:21:58;24.90;67.00
19039;DHT22;9652;49.014;12.052;2022-08-19T06:24:28;24.90;66.80
19039;DHT22;9652;49.014;12.052;2022-08-19T06:26:57;24.90;66.60
19039;DHT22;9652;49.014;12.052;2022-08-19T06:29:26;24.90;66.40
19039;DHT22;9652;49.014;12.052;2022-08-19T06:31:57;24.90;66.30
19039;DHT22;9652;49.014;12.052;2022-08-19T06:34:27;24.80;66.20
19039;DHT22;9652;49.014;12.052;2022-08-19T06:36:59;24.70;66.00
19039;DHT22;9652;49.014;12.052;2022-08-19T06:39:29;24.70;66.00
19039;DHT22;9652;49.014;12.052;2022-08-19T06:42:00;24.70;66.00
19039;DHT22;9652;49.014;12.052;2022-08-19T06:44:30;24.70;66.10
19039;DHT22;9652;49.014;12.052;2022-08-19T06:47:01;24.60;66.40
19039;DHT22;9652;49.014;12.052;2022-08-19T06:49:30;24.60;66.40
19039;DHT22;9652;49.014;12.052;2022-08-19T06:51:57;24.50;66.30
19039;DHT22;9652;49.014;12.052;2022-08-19T06:54:27;24.50;66.30
19039;DHT22;9652;49.014;12.052;2022-08-19T06:56:55;24.40;66.30
19039;DHT22;9652;49.014;12.052;2022-08-19T06:59:24;24.40;66.60
19039;DHT22;9652;49.014;12.052;2022-08-19T07:01:56;24.30;66.70
19039;DHT22;9652;49.014;12.052;2022-08-19T07:04:26;24.30;66.90
19039;DHT22;9652;49.014;12.052;2022-08-19T07:07:01;24.30;66.90
19039;DHT22;9652;49.014;12.052;2022-08-19T07:09:31;24.30;67.10
19039;DHT22;9652;49.014;12.052;2022-08-19T07:11:58;24.20;67.20
19039;DHT22;9652;49.014;12.052;2022-08-19T07:14:26;24.20;67.50
19039;DHT22;9652;49.014;12.052;2022-08-19T07:16:56;24.20;67.60
19039;DHT22;9652;49.014;12.052;2022-08-19T07:19:25;24.20;67.80
19039;DHT22;9652;49.014;12.052;2022-08-19T07:21:53;24.10;67.80
19039;DHT22;9652;49.014;12.052;2022-08-19T07:24:24;24.10;68.80
19039;DHT22;9652;49.014;12.052;2022-08-19T07:26:54;24.10;68.50
19039;DHT22;9652;49.014;12.052;2022-08-19T07:29:26;24.10;69.00
19039;DHT22;9652;49.014;12.052;2022-08-19T07:31:56;24.20;69.10
19039;DHT22;9652;49.014;12.052;2022-08-19T07:34:25;24.20;69.10
19039;DHT22;9652;49.014;12.052;2022-08-19T07:36:54;24.20;69.20
19039;DHT22;9652;49.014;12.052;2022-08-19T07:39:24;24.30;69.30
19039;DHT22;9652;49.014;12.052;2022-08-19T07:41:53;24.30;69.30
19039;DHT22;9652;49.014;12.052;2022-08-19T07:44:20;24.40;69.10
19039;DHT22;9652;49.014;12.052;2022-08-19T07:46:53;24.50;68.70
19039;DHT22;9652;49.014;12.052;2022-08-19T07:49:23;24.50;68.40
19039;DHT22;9652;49.014;12.052;2022-08-19T07:51:52;24.60;68.30
19039;DHT22;9652;49.014;12.052;2022-08-19T07:54:25;24.70;68.10
19039;DHT22;9652;49.014;12.052;2022-08-19T07:56:53;24.70;68.10
19039;DHT22;9652;49.014;12.052;2022-08-19T07:59:21;24.80;68.10
19039;DHT22;9652;49.014;12.052;2022-08-19T08:01:51;24.80;68.10
19039;DHT22;9652;49.014;12.052;2022-08-19T08:04:19;24.90;67.70
19039;DHT22;9652;49.014;12.052;2022-08-19T08:07:06;24.90;67.40
19039;DHT22;9652;49.014;12.052;2022-08-19T08:09:52;25.00;67.20
19039;DHT22;9652;49.014;12.052;2022-08-19T08:12:22;25.10;67.10
19039;DHT22;9652;49.014;12.052;2022-08-19T08:14:56;25.10;67.10
19039;DHT22;9652;49.014;12.052;2022-08-19T08:17:26;25.20;67.00
19039;DHT22;9652;49.014;12.052;2022-08-19T08:19:55;25.30;67.20
19039;DHT22;9652;49.014;12.052;2022-08-19T08:22:23;25.40;67.20
19039;DHT22;9652;49.014;12.052;2022-08-19T08:25:14;25.50;67.20
19039;DHT22;9652;49.014;12.052;2022-08-19T08:27:44;25.70;66.50
19039;DHT22;9652;49.014;12.052;2022-08-19T08:30:13;25.70;66.30
19039;DHT22;9652;49.014;12.052;2022-08-19T08:32:42;25.80;66.00
19039;DHT22;9652;49.014;12.052;2022-08-19T08:35:12;25.90;66.00
19039;DHT22;9652;49.014;12.052;2022-08-19T08:37:43;26.00;65.80
19039;DHT22;9652;49.014;12.052;2022-08-19T08:40:22;26.10;65.80
19039;DHT22;9652;49.014;12.052;2022-08-19T08:43:09;26.20;64.50
19039;DHT22;9652;49.014;12.052;2022-08-19T08:45:51;26.30;65.50
19039;DHT22;9652;49.014;12.052;2022-08-19T08:48:35;26.50;65.60
19039;DHT22;9652;49.014;12.052;2022-08-19T08:51:10;26.60;65.00
19039;DHT22;9652;49.014;12.052;2022-08-19T08:53:42;26.90;64.10
19039;DHT22;9652;49.014;12.052;2022-08-19T08:56:15;26.90;63.30
19039;DHT22;9652;49.014;12.052;2022-08-19T08:58:51;27.10;62.80
19039;DHT22;9652;49.014;12.052;2022-08-19T09:01:23;27.20;61.30
19039;DHT22;9652;49.014;12.052;2022-08-19T09:03:50;27.20;61.50
19039;DHT22;9652;49.014;12.052;2022-08-19T09:06:24;27.20;61.60
19039;DHT22;9652;49.014;12.052;2022-08-19T09:09:03;27.30;61.10
19039;DHT22;9652;49.014;12.052;2022-08-19T09:11:44;27.30;60.80
19039;DHT22;9652;49.014;12.052;2022-08-19T09:14:32;27.40;60.20
19039;DHT22;9652;49.014;12.052;2022-08-19T09:17:07;27.50;59.90
19039;DHT22;9652;49.014;12.052;2022-08-19T09:19:46;27.50;60.10
19039;DHT22;9652;49.014;12.052;2022-08-19T09:22:16;27.60;60.70
19039;DHT22;9652;49.014;12.052;2022-08-19T09:24:47;27.60;59.60
19039;DHT22;9652;49.014;12.052;2022-08-19T09:27:17;27.60;59.40
19039;DHT22;9652;49.014;12.052;2022-08-19T09:29:44;27.60;59.20
19039;DHT22;9652;49.014;12.052;2022-08-19T09:32:15;27.50;59.30
19039;DHT22;9652;49.014;12.052;2022-08-19T09:34:42;27.50;59.40
19039;DHT22;9652;49.014;12.052;2022-08-19T09:37:10;27.50;59.40
19039;DHT22;9652;49.014;12.052;2022-08-19T09:39:38;27.50;59.30
19039;DHT22;9652;49.014;12.052;2022-08-19T09:42:09;27.50;59.20
19039;DHT22;9652;49.014;12.052;2022-08-19T09:44:40;27.50;58.90
19039;DHT22;9652;49.014;12.052;2022-08-19T09:47:08;27.40;58.60
19039;DHT22;9652;49.014;12.052;2022-08-19T09:49:36;27.40;58.40
19039;DHT22;9652;49.014;12.052;2022-08-19T09:52:04;27.30;58.50
19039;DHT22;9652;49.014;12.052;2022-08-19T09:54:33;27.30;58.60
19039;DHT22;9652;49.014;12.052;2022-08-19T09:57:01;27.20;59.20
19039;DHT22;9652;49.014;12.052;2022-08-19T09:59:28;27.20;58.60
19039;DHT22;9652;49.014;12.052;2022-08-19T10:01:57;27.30;58.60
19039;DHT22;9652;49.014;12.052;2022-08-19T10:04:24;27.10;58.40
19039;DHT22;9652;49.014;12.052;2022-08-19T10:07:12;27.10;58.50
19039;DHT22;9652;49.014;12.052;2022-08-19T10:09:39;27.10;58.40
19039;DHT22;9652;49.014;12.052;2022-08-19T10:12:07;27.10;58.20
19039;DHT22;9652;49.014;12.052;2022-08-19T10:14:34;27.10;58.10
19039;DHT22;9652;49.014;12.052;2022-08-19T10:17:03;27.00;58.10
19039;DHT22;9652;49.014;12.052;2022-08-19T10:19:30;27.00;58.20
19039;DHT22;9652;49.014;12.052;2022-08-19T10:22:03;27.00;58.30
19039;DHT22;9652;49.014;12.052;2022-08-19T10:24:31;27.00;58.20
19039;DHT22;9652;49.014;12.052;2022-08-19T10:27:00;26.90;58.00
19039;DHT22;9652;49.014;12.052;2022-08-19T10:29:29;26.90;58.20
19039;DHT22;9652;49.014;12.052;2022-08-19T10:31:57;26.90;58.50
19039;DHT22;9652;49.014;12.052;2022-08-19T10:34:27;26.90;58.70
19039;DHT22;9652;49.014;12.052;2022-08-19T10:36:57;26.90;58.80
19039;DHT22;9652;49.014;12.052;2022-08-19T10:39:26;27.00;59.00
19039;DHT22;9652;49.014;12.052;2022-08-19T10:41:55;27.10;59.00
19039;DHT22;9652;49.014;12.052;2022-08-19T10:44:23;27.20;58.90
19039;DHT22;9652;49.014;12.052;2022-08-19T10:46:50;27.40;58.70
19039;DHT22;9652;49.014;12.052;2022-08-19T10:49:18;27.50;58.40
19039;DHT22;9652;49.014;12.052;2022-08-19T10:51:47;27.50;58.00
19039;DHT22;9652;49.014;12.052;2022-08-19T10:54:32;27.60;57.90
19039;DHT22;9652;49.014;12.052;2022-08-19T10:57:17;27.60;57.60
19039;DHT22;9652;49.014;12.052;2022-08-19T10:59:44;27.60;57.50
19039;DHT22;9652;49.014;12.052;2022-08-19T11:02:12;27.60;57.70
19039;DHT22;9652;49.014;12.052;2022-08-19T11:04:40;27.50;58.50
19039;DHT22;9652;49.014;12.052;2022-08-19T11:07:08;27.60;57.90
19039;DHT22;9652;49.014;12.052;2022-08-19T11:09:39;27.60;57.70
19039;DHT22;9652;49.014;12.052;2022-08-19T11:12:08;27.70;57.80
19039;DHT22;9652;49.014;12.052;2022-08-19T11:14:36;27.70;57.70
19039;DHT22;9652;49.014;12.052;2022-08-19T11:17:04;27.80;57.60
19039;DHT22;9652;49.014;12.052;2022-08-19T11:19:32;27.80;57.40
19039;DHT22;9652;49.014;12.052;2022-08-19T11:22:00;27.90;57.40
19039;DHT22;9652;49.014;12.052;2022-08-19T11:24:30;27.90;57.30
19039;DHT22;9652;49.014;12.052;2022-08-19T11:27:01;27.90;57.00
19039;DHT22;9652;49.014;12.052;2022-08-19T11:29:31;27.90;56.80
19039;DHT22;9652;49.014;12.052;2022-08-19T11:32:03;27.90;56.60
19039;DHT22;9652;49.014;12.052;2022-08-19T11:34:31;27.90;56.60
19039;DHT22;9652;49.014;12.052;2022-08-19T11:36:58;27.80;56.50
19039;DHT22;9652;49.014;12.052;2022-08-19T11:39:29;27.80;56.40
19039;DHT22;9652;49.014;12.052;2022-08-19T11:41:58;27.70;56.70
19039;DHT22;9652;49.014;12.052;2022-08-19T11:44:26;27.50;58.30
19039;DHT22;9652;49.014;12.052;2022-08-19T11:46:55;27.40;59.70
19039;DHT22;9652;49.014;12.052;2022-08-19T11:49:23;27.20;60.80
19039;DHT22;9652;49.014;12.052;2022-08-19T11:51:50;27.00;62.00
19039;DHT22;9652;49.014;12.052;2022-08-19T11:54:17;26.80;63.10
19039;DHT22;9652;49.014;12.052;2022-08-19T11:56:45;26.50;63.10
19039;DHT22;9652;49.014;12.052;2022-08-19T11:59:14;26.30;63.20
19039;DHT22;9652;49.014;12.052;2022-08-19T12:01:41;26.00;64.30
19039;DHT22;9652;49.014;12.052;2022-08-19T12:04:09;25.80;65.30
19039;DHT22;9652;49.014;12.052;2022-08-19T12:06:38;25.60;65.90
19039;DHT22;9652;49.014;12.052;2022-08-19T12:09:08;25.40;66.10
19039;DHT22;9652;49.014;12.052;2022-08-19T12:11:37;25.20;66.60
19039;DHT22;9652;49.014;12.052;2022-08-19T12:14:08;25.00;67.60
19039;DHT22;9652;49.014;12.052;2022-08-19T12:16:40;24.90;69.00
19039;DHT22;9652;49.014;12.052;2022-08-19T12:19:07;24.70;69.90
19039;DHT22;9652;49.014;12.052;2022-08-19T12:21:35;24.60;71.10
19039;DHT22;9652;49.014;12.052;2022-08-19T12:24:04;24.50;72.10
19039;DHT22;9652;49.014;12.052;2022-08-19T12:26:33;24.50;73.00
19039;DHT22;9652;49.014;12.052;2022-08-19T12:29:01;24.50;73.70
19039;DHT22;9652;49.014;12.052;2022-08-19T12:31:29;24.40;74.30
19039;DHT22;9652;49.014;12.052;2022-08-19T12:33:56;24.40;74.70
19039;DHT22;9652;49.014;12.052;2022-08-19T12:36:24;24.40;74.90
19039;DHT22;9652;49.014;12.052;2022-08-19T12:38:52;24.40;75.20
19039;DHT22;9652;49.014;12.052;2022-08-19T12:41:19;24.40;76.00
19039;DHT22;9652;49.014;12.052;2022-08-19T12:43:48;24.50;76.60
19039;DHT22;9652;49.014;12.052;2022-08-19T12:46:16;24.50;76.80
19039;DHT22;9652;49.014;12.052;2022-08-19T12:48:46;24.50;77.10
19039;DHT22;9652;49.014;12.052;2022-08-19T12:51:14;24.60;77.60
19039;DHT22;9652;49.014;12.052;2022-08-19T12:53:44;24.60;78.30
19039;DHT22;9652;49.014;12.052;2022-08-19T12:56:12;24.70;78.90
19039;DHT22;9652;49.014;12.052;2022-08-19T12:58:41;24.70;78.90
19039;DHT22;9652;49.014;12.052;2022-08-19T13:01:10;24.80;79.30
19039;DHT22;9652;49.014;12.052;2022-08-19T13:03:41;24.90;80.00
19039;DHT22;9652;49.014;12.052;2022-08-19T13:06:10;25.00;80.00
19039;DHT22;9652;49.014;12.052;2022-08-19T13:08:38;25.10;80.70
19039;DHT22;9652;49.014;12.052;2022-08-19T13:11:10;25.30;81.10
19039;DHT22;9652;49.014;12.052;2022-08-19T13:13:39;25.30;81.00
19039;DHT22;9652;49.014;12.052;2022-08-19T13:16:08;25.40;79.30
19039;DHT22;9652;49.014;12.052;2022-08-19T13:18:36;25.50;78.60
19039;DHT22;9652;49.014;12.052;2022-08-19T13:21:06;25.40;77.70
19039;DHT22;9652;49.014;12.052;2022-08-19T13:23:36;25.50;77.80
19039;DHT22;9652;49.014;12.052;2022-08-19T13:26:05;25.40;77.90
19039;DHT22;9652;49.014;12.052;2022-08-19T13:28:34;25.40;78.30
19039;DHT22;9652;49.014;12.052;2022-08-19T13:31:22;25.40;78.60
19039;DHT22;9652;49.014;12.052;2022-08-19T13:34:08;25.40;78.60
19039;DHT22;9652;49.014;12.052;2022-08-19T13:36:36;25.40;79.70
19039;DHT22;9652;49.014;12.052;2022-08-19T13:39:07;25.50;80.60
19039;DHT22;9652;49.014;12.052;2022-08-19T13:41:35;25.50;81.10
19039;DHT22;9652;49.014;12.052;2022-08-19T13:44:03;25.60;81.50
19039;DHT22;9652;49.014;12.052;2022-08-19T13:46:31;25.60;81.30
19039;DHT22;9652;49.014;12.052;2022-08-19T13:48:58;25.70;81.30
19039;DHT22;9652;49.014;12.052;2022-08-19T13:51:25;25.80;82.60
19039;DHT22;9652;49.014;12.052;2022-08-19T13:53:52;26.00;84.00
19039;DHT22;9652;49.014;12.052;2022-08-19T13:56:22;26.10;84.20
19039;DHT22;9652;49.014;12.052;2022-08-19T13:58:49;26.20;84.70
19039;DHT22;9652;49.014;12.052;2022-08-19T14:01:19;26.50;83.90
19039;DHT22;9652;49.014;12.052;2022-08-19T14:03:46;26.60;82.40
19039;DHT22;9652;49.014;12.052;2022-08-19T14:06:14;26.70;80.90
19039;DHT22;9652;49.014;12.052;2022-08-19T14:08:42;26.80;81.20
19039;DHT22;9652;49.014;12.052;2022-08-19T14:11:10;26.90;81.90
19039;DHT22;9652;49.014;12.052;2022-08-19T14:13:39;26.90;81.60
19039;DHT22;9652;49.014;12.052;2022-08-19T14:16:07;27.10;81.70
19039;DHT22;9652;49.014;12.052;2022-08-19T14:18:35;27.10;81.70
19039;DHT22;9652;49.014;12.052;2022-08-19T14:21:04;27.20;81.60
19039;DHT22;9652;49.014;12.052;2022-08-19T14:23:31;27.30;81.50
19039;DHT22;9652;49.014;12.052;2022-08-19T14:26:05;27.40;80.70
19039;DHT22;9652;49.014;12.052;2022-08-19T14:28:33;27.50;82.00
19039;DHT22;9652;49.014;12.052;2022-08-19T14:31:02;27.60;81.40
19039;DHT22;9652;49.014;12.052;2022-08-19T14:33:29;27.60;79.50
19039;DHT22;9652;49.014;12.052;2022-08-19T14:35:56;27.80;78.20
19039;DHT22;9652;49.014;12.052;2022-08-19T14:38:23;27.70;77.40
19039;DHT22;9652;49.014;12.052;2022-08-19T14:40:50;27.70;77.00
19039;DHT22;9652;49.014;12.052;2022-08-19T14:43:17;27.60;76.30
19039;DHT22;9652;49.014;12.052;2022-08-19T14:45:44;27.50;75.70
19039;DHT22;9652;49.014;12.052;2022-08-19T14:48:13;27.50;76.00
19039;DHT22;9652;49.014;12.052;2022-08-19T14:50:40;27.40;76.30
19039;DHT22;9652;49.014;12.052;2022-08-19T14:53:08;27.40;76.50
19039;DHT22;9652;49.014;12.052;2022-08-19T14:55:35;27.50;76.70
19039;DHT22;9652;49.014;12.052;2022-08-19T14:58:03;27.30;76.80
19039;DHT22;9652;49.014;12.052;2022-08-19T15:00:31;27.20;76.60
19039;DHT22;9652;49.014;12.052;2022-08-19T15:02:58;27.20;76.40
19039;DHT22;9652;49.014;12.052;2022-08-19T15:05:26;27.10;76.20
19039;DHT22;9652;49.014;12.052;2022-08-19T15:07:53;27.10;76.40
19039;DHT22;9652;49.014;12.052;2022-08-19T15:10:23;27.00;76.40
19039;DHT22;9652;49.014;12.052;2022-08-19T15:12:50;27.00;76.80
19039;DHT22;9652;49.014;12.052;2022-08-19T15:15:18;27.00;76.90
19039;DHT22;9652;49.014;12.052;2022-08-19T15:17:47;26.90;77.20
19039;DHT22;9652;49.014;12.052;2022-08-19T15:20:17;26.90;77.40
19039;DHT22;9652;49.014;12.052;2022-08-19T15:22:47;26.90;77.70
19039;DHT22;9652;49.014;12.052;2022-08-19T15:25:17;26.90;77.90
19039;DHT22;9652;49.014;12.052;2022-08-19T15:27:46;27.00;78.10
19039;DHT22;9652;49.014;12.052;2022-08-19T15:30:19;27.00;78.20
19039;DHT22;9652;49.014;12.052;2022-08-19T15:32:49;27.00;78.10
19039;DHT22;9652;49.014;12.052;2022-08-19T15:35:18;27.00;76.70
19039;DHT22;9652;49.014;12.052;2022-08-19T15:37:48;27.00;76.10
19039;DHT22;9652;49.014;12.052;2022-08-19T15:40:15;27.00;74.90
19039;DHT22;9652;49.014;12.052;2022-08-19T15:42:43;27.00;74.50
19039;DHT22;9652;49.014;12.052;2022-08-19T15:45:12;27.00;74.70